sensor_id;sensor_type;location;lat;lon;timestamp;P1;durP1;ratioP1;P2;durP2;ratioP2
67554;SDS011;54385;53.516;49.456;2023-08-08T00:00:35;5.30;;;3.20;;
67554;SDS011;54385;53.516;49.456;2023-08-08T00:03:02;6.20;;;3.25;;
67554;SDS011;54385;53.516;49.456;2023-08-08T00:05:28;5.55;;;2.88;;
67554;SDS011;54385;53.516;49.456;2023-08-08T00:07:55;5.15;;;2.70;;
67554;SDS011;54385;53.516;49.456;2023-08-08T00:10:22;5.82;;;3.25;;
67554;SDS011;54385;53.516;49.456;2023-08-08T00:12:49;4.50;;;2.78;;
67554;SDS011;54385;53.516;49.456;2023-08-08T00:15:16;6.25;;;3.17;;
67554;SDS011;54385;53.516;49.456;2023-08-08T00:17:42;4.85;;;2.95;;
67554;SDS011;54385;53.516;49.456;2023-08-08T00:20:09;5.85;;;3.30;;
67554;SDS011;54385;53.516;49.456;2023-08-08T00:22:37;4.72;;;3.10;;
67554;SDS011;54385;53.516;49.456;2023-08-08T00:25:04;6.32;;;3.30;;
67554;SDS011;54385;53.516;49.456;2023-08-08T00:27:31;6.43;;;3.55;;
67554;SDS011;54385;53.516;49.456;2023-08-08T00:29:58;6.07;;;2.95;;
67554;SDS011;54385;53.516;49.456;2023-08-08T00:32:25;5.68;;;3.00;;
67554;SDS011;54385;53.516;49.456;2023-08-08T00:34:52;5.18;;;3.22;;
67554;SDS011;54385;53.516;49.456;2023-08-08T00:37:18;7.13;;;3.40;;
67554;SDS011;54385;53.516;49.456;2023-08-08T00:39:44;6.32;;;3.35;;
67554;SDS011;54385;53.516;49.456;2023-08-08T00:42:14;6.75;;;3.00;;
67554;SDS011;54385;53.516;49.456;2023-08-08T00:44:41;7.07;;;3.63;;
67554;SDS011;54385;53.516;49.456;2023-08-08T00:47:08;6.85;;;3.60;;
67554;SDS011;54385;53.516;49.456;2023-08-08T00:49:35;6.45;;;3.35;;
67554;SDS011;54385;53.516;49.456;2023-08-08T00:52:03;6.30;;;3.40;;
67554;SDS011;54385;53.516;49.456;2023-08-08T00:54:30;5.88;;;3.47;;
67554;SDS011;54385;53.516;49.456;2023-08-08T00:56:57;6.30;;;3.90;;
67554;SDS011;54385;53.516;49.456;2023-08-08T00:59:23;7.40;;;3.72;;
67554;SDS011;54385;53.516;49.456;2023-08-08T01:01:50;7.57;;;4.00;;
67554;SDS011;54385;53.516;49.456;2023-08-08T01:04:16;7.40;;;3.67;;
67554;SDS011;54385;53.516;49.456;2023-08-08T01:06:47;7.18;;;3.70;;
67554;SDS011;54385;53.516;49.456;2023-08-08T01:09:24;6.43;;;3.88;;
67554;SDS011;54385;53.516;49.456;2023-08-08T01:11:56;7.55;;;3.60;;
67554;SDS011;54385;53.516;49.456;2023-08-08T01:14:25;6.57;;;3.53;;
67554;SDS011;54385;53.516;49.456;2023-08-08T01:16:55;8.48;;;4.28;;
67554;SDS011;54385;53.516;49.456;2023-08-08T01:19:25;5.07;;;3.30;;
67554;SDS011;54385;53.516;49.456;2023-08-08T01:21:54;6.72;;;3.63;;
67554;SDS011;54385;53.516;49.456;2023-08-08T01:24:23;7.53;;;4.03;;
67554;SDS011;54385;53.516;49.456;2023-08-08T01:26:55;7.35;;;3.20;;
67554;SDS011;54385;53.516;49.456;2023-08-08T01:29:22;6.85;;;3.58;;
67554;SDS011;54385;53.516;49.456;2023-08-08T01:31:49;5.75;;;3.50;;
67554;SDS011;54385;53.516;49.456;2023-08-08T01:34:16;6.22;;;3.60;;
67554;SDS011;54385;53.516;49.456;2023-08-08T01:36:54;8.60;;;4.22;;
67554;SDS011;54385;53.516;49.456;2023-08-08T01:39:27;7.35;;;3.42;;
67554;SDS011;54385;53.516;49.456;2023-08-08T01:41:56;6.35;;;3.63;;
67554;SDS011;54385;53.516;49.456;2023-08-08T01:44:26;9.27;;;4.13;;
67554;SDS011;54385;53.516;49.456;2023-08-08T01:46:53;8.10;;;3.90;;
67554;SDS011;54385;53.516;49.456;2023-08-08T01:49:20;6.63;;;3.45;;
67554;SDS011;54385;53.516;49.456;2023-08-08T01:51:47;5.50;;;3.22;;
67554;SDS011;54385;53.516;49.456;2023-08-08T01:54:14;6.53;;;3.30;;
67554;SDS011;54385;53.516;49.456;2023-08-08T01:56:43;6.07;;;3.28;;
67554;SDS011;54385;53.516;49.456;2023-08-08T01:59:10;5.88;;;3.45;;
67554;SDS011;54385;53.516;49.456;2023-08-08T02:01:36;5.68;;;3.22;;
67554;SDS011;54385;53.516;49.456;2023-08-08T02:04:03;7.47;;;3.47;;
67554;SDS011;54385;53.516;49.456;2023-08-08T02:06:30;6.50;;;3.28;;
67554;SDS011;54385;53.516;49.456;2023-08-08T02:08:57;7.40;;;3.80;;
67554;SDS011;54385;53.516;49.456;2023-08-08T02:11:24;6.30;;;3.60;;
67554;SDS011;54385;53.516;49.456;2023-08-08T02:13:51;7.55;;;3.60;;
67554;SDS011;54385;53.516;49.456;2023-08-08T02:16:18;5.82;;;3.17;;
67554;SDS011;54385;53.516;49.456;2023-08-08T02:18:44;5.53;;;3.03;;
67554;SDS011;54385;53.516;49.456;2023-08-08T02:21:11;6.43;;;3.47;;
67554;SDS011;54385;53.516;49.456;2023-08-08T02:23:38;5.95;;;3.35;;
67554;SDS011;54385;53.516;49.456;2023-08-08T02:26:04;5.43;;;3.25;;
67554;SDS011;54385;53.516;49.456;2023-08-08T02:28:31;6.47;;;3.70;;
67554;SDS011;54385;53.516;49.456;2023-08-08T02:30:58;5.65;;;3.60;;
67554;SDS011;54385;53.516;49.456;2023-08-08T02:33:25;6.82;;;3.22;;
67554;SDS011;54385;53.516;49.456;2023-08-08T02:35:53;7.18;;;3.88;;
67554;SDS011;54385;53.516;49.456;2023-08-08T02:38:20;5.68;;;3.03;;
67554;SDS011;54385;53.516;49.456;2023-08-08T02:40:46;5.13;;;2.88;;
67554;SDS011;54385;53.516;49.456;2023-08-08T02:43:13;6.43;;;3.35;;
67554;SDS011;54385;53.516;49.456;2023-08-08T02:45:40;4.85;;;3.10;;
67554;SDS011;54385;53.516;49.456;2023-08-08T02:48:07;6.38;;;3.28;;
67554;SDS011;54385;53.516;49.456;2023-08-08T02:50:33;7.07;;;3.33;;
67554;SDS011;54385;53.516;49.456;2023-08-08T02:53:00;4.47;;;3.00;;
67554;SDS011;54385;53.516;49.456;2023-08-08T02:55:27;5.35;;;3.10;;
67554;SDS011;54385;53.516;49.456;2023-08-08T02:57:57;5.70;;;3.25;;
67554;SDS011;54385;53.516;49.456;2023-08-08T03:00:24;5.30;;;3.00;;
67554;SDS011;54385;53.516;49.456;2023-08-08T03:02:54;5.32;;;3.15;;
67554;SDS011;54385;53.516;49.456;2023-08-08T03:05:21;5.75;;;3.15;;
67554;SDS011;54385;53.516;49.456;2023-08-08T03:07:48;5.93;;;2.92;;
67554;SDS011;54385;53.516;49.456;2023-08-08T03:10:15;4.85;;;3.25;;
67554;SDS011;54385;53.516;49.456;2023-08-08T03:12:41;5.47;;;3.17;;
67554;SDS011;54385;53.516;49.456;2023-08-08T03:15:08;4.40;;;2.95;;
67554;SDS011;54385;53.516;49.456;2023-08-08T03:17:36;4.85;;;2.80;;
67554;SDS011;54385;53.516;49.456;2023-08-08T03:20:03;4.47;;;2.97;;
67554;SDS011;54385;53.516;49.456;2023-08-08T03:22:33;5.88;;;3.15;;
67554;SDS011;54385;53.516;49.456;2023-08-08T03:25:00;3.97;;;2.65;;
67554;SDS011;54385;53.516;49.456;2023-08-08T03:27:27;4.57;;;2.83;;
67554;SDS011;54385;53.516;49.456;2023-08-08T03:29:53;5.18;;;3.53;;
67554;SDS011;54385;53.516;49.456;2023-08-08T03:32:20;8.25;;;3.85;;
67554;SDS011;54385;53.516;49.456;2023-08-08T03:34:47;5.13;;;3.30;;
67554;SDS011;54385;53.516;49.456;2023-08-08T03:37:14;9.48;;;3.75;;
67554;SDS011;54385;53.516;49.456;2023-08-08T03:39:41;9.07;;;3.85;;
67554;SDS011;54385;53.516;49.456;2023-08-08T03:42:07;13.65;;;4.85;;
67554;SDS011;54385;53.516;49.456;2023-08-08T03:44:34;20.02;;;5.45;;
67554;SDS011;54385;53.516;49.456;2023-08-08T03:47:01;18.10;;;4.82;;
67554;SDS011;54385;53.516;49.456;2023-08-08T03:49:27;32.10;;;5.85;;
67554;SDS011;54385;53.516;49.456;2023-08-08T03:51:53;29.02;;;6.68;;
67554;SDS011;54385;53.516;49.456;2023-08-08T03:54:20;37.08;;;6.68;;
67554;SDS011;54385;53.516;49.456;2023-08-08T03:56:46;24.35;;;5.78;;
67554;SDS011;54385;53.516;49.456;2023-08-08T03:59:13;26.98;;;6.20;;
67554;SDS011;54385;53.516;49.456;2023-08-08T04:01:49;31.83;;;5.82;;
67554;SDS011;54385;53.516;49.456;2023-08-08T04:04:15;19.77;;;4.80;;
67554;SDS011;54385;53.516;49.456;2023-08-08T04:06:46;15.50;;;4.90;;
67554;SDS011;54385;53.516;49.456;2023-08-08T04:09:19;15.45;;;5.20;;
67554;SDS011;54385;53.516;49.456;2023-08-08T04:11:49;17.55;;;5.53;;
67554;SDS011;54385;53.516;49.456;2023-08-08T04:14:16;15.65;;;4.57;;
67554;SDS011;54385;53.516;49.456;2023-08-08T04:16:43;14.38;;;4.97;;
67554;SDS011;54385;53.516;49.456;2023-08-08T04:19:10;9.52;;;3.75;;
67554;SDS011;54385;53.516;49.456;2023-08-08T04:21:41;16.80;;;5.03;;
67554;SDS011;54385;53.516;49.456;2023-08-08T04:24:16;9.45;;;3.75;;
67554;SDS011;54385;53.516;49.456;2023-08-08T04:26:48;17.67;;;4.18;;
67554;SDS011;54385;53.516;49.456;2023-08-08T04:29:14;10.23;;;3.60;;
67554;SDS011;54385;53.516;49.456;2023-08-08T04:31:41;9.13;;;3.50;;
67554;SDS011;54385;53.516;49.456;2023-08-08T04:34:07;8.27;;;3.63;;
67554;SDS011;54385;53.516;49.456;2023-08-08T04:36:36;7.28;;;3.33;;
67554;SDS011;54385;53.516;49.456;2023-08-08T04:39:04;9.80;;;4.22;;
67554;SDS011;54385;53.516;49.456;2023-08-08T04:41:34;6.82;;;3.75;;
67554;SDS011;54385;53.516;49.456;2023-08-08T04:44:01;10.93;;;3.78;;
67554;SDS011;54385;53.516;49.456;2023-08-08T04:46:28;6.07;;;3.72;;
67554;SDS011;54385;53.516;49.456;2023-08-08T04:48:55;5.45;;;2.97;;
67554;SDS011;54385;53.516;49.456;2023-08-08T04:51:22;6.55;;;3.08;;
67554;SDS011;54385;53.516;49.456;2023-08-08T04:53:49;7.07;;;3.75;;
67554;SDS011;54385;53.516;49.456;2023-08-08T04:56:16;6.53;;;3.30;;
67554;SDS011;54385;53.516;49.456;2023-08-08T04:58:42;7.15;;;3.55;;
67554;SDS011;54385;53.516;49.456;2023-08-08T05:01:09;6.32;;;3.30;;
67554;SDS011;54385;53.516;49.456;2023-08-08T05:03:40;5.28;;;3.53;;
67554;SDS011;54385;53.516;49.456;2023-08-08T05:06:07;6.50;;;3.88;;
67554;SDS011;54385;53.516;49.456;2023-08-08T05:08:34;5.68;;;3.25;;
67554;SDS011;54385;53.516;49.456;2023-08-08T05:11:03;6.30;;;3.33;;
67554;SDS011;54385;53.516;49.456;2023-08-08T05:13:30;8.27;;;3.50;;
67554;SDS011;54385;53.516;49.456;2023-08-08T05:15:57;6.85;;;3.70;;
67554;SDS011;54385;53.516;49.456;2023-08-08T05:18:24;6.05;;;3.63;;
67554;SDS011;54385;53.516;49.456;2023-08-08T05:20:51;6.95;;;4.18;;
67554;SDS011;54385;53.516;49.456;2023-08-08T05:23:18;8.25;;;4.00;;
67554;SDS011;54385;53.516;49.456;2023-08-08T05:25:45;10.88;;;4.97;;
67554;SDS011;54385;53.516;49.456;2023-08-08T05:28:12;10.70;;;4.78;;
67554;SDS011;54385;53.516;49.456;2023-08-08T05:30:38;10.77;;;4.53;;
67554;SDS011;54385;53.516;49.456;2023-08-08T05:33:08;9.18;;;4.72;;
67554;SDS011;54385;53.516;49.456;2023-08-08T05:35:35;9.63;;;4.57;;
67554;SDS011;54385;53.516;49.456;2023-08-08T05:38:02;10.70;;;4.70;;
67554;SDS011;54385;53.516;49.456;2023-08-08T05:40:29;12.95;;;5.20;;
67554;SDS011;54385;53.516;49.456;2023-08-08T05:42:55;10.40;;;4.93;;
67554;SDS011;54385;53.516;49.456;2023-08-08T05:45:22;8.90;;;3.90;;
67554;SDS011;54385;53.516;49.456;2023-08-08T05:47:48;7.57;;;4.30;;
67554;SDS011;54385;53.516;49.456;2023-08-08T05:50:14;9.85;;;4.40;;
67554;SDS011;54385;53.516;49.456;2023-08-08T05:52:41;11.27;;;4.60;;
67554;SDS011;54385;53.516;49.456;2023-08-08T05:55:08;8.52;;;4.65;;
67554;SDS011;54385;53.516;49.456;2023-08-08T05:57:35;11.98;;;5.22;;
67554;SDS011;54385;53.516;49.456;2023-08-08T06:00:04;8.00;;;4.57;;
67554;SDS011;54385;53.516;49.456;2023-08-08T06:02:37;7.38;;;4.22;;
67554;SDS011;54385;53.516;49.456;2023-08-08T06:05:04;8.73;;;4.63;;
67554;SDS011;54385;53.516;49.456;2023-08-08T06:07:31;10.57;;;4.70;;
67554;SDS011;54385;53.516;49.456;2023-08-08T06:09:57;9.18;;;4.30;;
67554;SDS011;54385;53.516;49.456;2023-08-08T06:12:24;11.25;;;4.15;;
67554;SDS011;54385;53.516;49.456;2023-08-08T06:14:50;6.88;;;4.00;;
67554;SDS011;54385;53.516;49.456;2023-08-08T06:17:17;7.90;;;4.50;;
67554;SDS011;54385;53.516;49.456;2023-08-08T06:19:43;8.60;;;4.00;;
67554;SDS011;54385;53.516;49.456;2023-08-08T06:22:09;7.82;;;3.97;;
67554;SDS011;54385;53.516;49.456;2023-08-08T06:24:36;6.95;;;3.60;;
67554;SDS011;54385;53.516;49.456;2023-08-08T06:27:03;5.70;;;3.95;;
67554;SDS011;54385;53.516;49.456;2023-08-08T06:29:29;7.35;;;3.70;;
67554;SDS011;54385;53.516;49.456;2023-08-08T06:31:56;8.07;;;3.88;;
67554;SDS011;54385;53.516;49.456;2023-08-08T06:34:23;5.80;;;3.13;;
67554;SDS011;54385;53.516;49.456;2023-08-08T06:36:50;5.32;;;3.00;;
67554;SDS011;54385;53.516;49.456;2023-08-08T06:39:16;7.53;;;3.08;;
67554;SDS011;54385;53.516;49.456;2023-08-08T06:41:45;4.47;;;3.03;;
67554;SDS011;54385;53.516;49.456;2023-08-08T06:44:11;5.35;;;3.22;;
67554;SDS011;54385;53.516;49.456;2023-08-08T06:46:38;5.63;;;2.90;;
67554;SDS011;54385;53.516;49.456;2023-08-08T06:49:04;5.00;;;2.65;;
67554;SDS011;54385;53.516;49.456;2023-08-08T06:51:32;4.28;;;2.75;;
67554;SDS011;54385;53.516;49.456;2023-08-08T06:53:59;4.75;;;2.72;;
67554;SDS011;54385;53.516;49.456;2023-08-08T06:56:25;5.70;;;2.78;;
67554;SDS011;54385;53.516;49.456;2023-08-08T06:58:52;5.63;;;2.63;;
67554;SDS011;54385;53.516;49.456;2023-08-08T07:01:19;5.88;;;3.17;;
67554;SDS011;54385;53.516;49.456;2023-08-08T07:03:46;5.43;;;3.50;;
67554;SDS011;54385;53.516;49.456;2023-08-08T07:06:12;3.92;;;2.60;;
67554;SDS011;54385;53.516;49.456;2023-08-08T07:08:39;5.63;;;3.00;;
67554;SDS011;54385;53.516;49.456;2023-08-08T07:11:05;4.75;;;2.88;;
67554;SDS011;54385;53.516;49.456;2023-08-08T07:13:32;3.05;;;2.45;;
67554;SDS011;54385;53.516;49.456;2023-08-08T07:16:05;3.25;;;2.58;;
67554;SDS011;54385;53.516;49.456;2023-08-08T07:18:31;4.05;;;2.67;;
67554;SDS011;54385;53.516;49.456;2023-08-08T07:20:58;8.45;;;3.20;;
67554;SDS011;54385;53.516;49.456;2023-08-08T07:23:24;5.05;;;2.90;;
67554;SDS011;54385;53.516;49.456;2023-08-08T07:25:51;4.55;;;2.80;;
67554;SDS011;54385;53.516;49.456;2023-08-08T07:28:17;7.95;;;3.22;;
67554;SDS011;54385;53.516;49.456;2023-08-08T07:30:44;3.67;;;2.63;;
67554;SDS011;54385;53.516;49.456;2023-08-08T07:33:13;3.25;;;2.67;;
67554;SDS011;54385;53.516;49.456;2023-08-08T07:35:40;3.17;;;2.88;;
67554;SDS011;54385;53.516;49.456;2023-08-08T07:38:06;4.85;;;2.88;;
67554;SDS011;54385;53.516;49.456;2023-08-08T07:40:33;4.75;;;3.05;;
67554;SDS011;54385;53.516;49.456;2023-08-08T07:42:59;6.65;;;3.03;;
67554;SDS011;54385;53.516;49.456;2023-08-08T07:45:25;5.47;;;2.90;;
67554;SDS011;54385;53.516;49.456;2023-08-08T07:47:52;4.10;;;2.72;;
67554;SDS011;54385;53.516;49.456;2023-08-08T07:50:18;2.75;;;2.47;;
67554;SDS011;54385;53.516;49.456;2023-08-08T07:52:48;4.72;;;2.85;;
67554;SDS011;54385;53.516;49.456;2023-08-08T07:55:15;5.10;;;2.45;;
67554;SDS011;54385;53.516;49.456;2023-08-08T07:57:41;5.85;;;2.55;;
67554;SDS011;54385;53.516;49.456;2023-08-08T08:00:20;9.45;;;2.75;;
67554;SDS011;54385;53.516;49.456;2023-08-08T08:05:41;4.35;;;2.42;;
67554;SDS011;54385;53.516;49.456;2023-08-08T08:08:10;4.30;;;2.30;;
67554;SDS011;54385;53.516;49.456;2023-08-08T08:10:37;2.90;;;2.50;;
67554;SDS011;54385;53.516;49.456;2023-08-08T08:13:03;3.35;;;2.17;;
67554;SDS011;54385;53.516;49.456;2023-08-08T08:15:32;3.22;;;2.40;;
67554;SDS011;54385;53.516;49.456;2023-08-08T08:18:04;4.15;;;2.50;;
67554;SDS011;54385;53.516;49.456;2023-08-08T08:20:30;3.45;;;2.38;;
67554;SDS011;54385;53.516;49.456;2023-08-08T08:22:57;4.85;;;2.35;;
67554;SDS011;54385;53.516;49.456;2023-08-08T08:25:24;3.47;;;2.38;;
67554;SDS011;54385;53.516;49.456;2023-08-08T08:27:50;2.70;;;2.17;;
67554;SDS011;54385;53.516;49.456;2023-08-08T08:30:21;3.92;;;2.25;;
67554;SDS011;54385;53.516;49.456;2023-08-08T08:32:50;3.45;;;2.33;;
67554;SDS011;54385;53.516;49.456;2023-08-08T08:35:17;3.88;;;2.13;;
67554;SDS011;54385;53.516;49.456;2023-08-08T08:37:44;2.30;;;2.10;;
67554;SDS011;54385;53.516;49.456;2023-08-08T08:40:11;6.07;;;2.60;;
67554;SDS011;54385;53.516;49.456;2023-08-08T08:42:38;6.20;;;2.33;;
67554;SDS011;54385;53.516;49.456;2023-08-08T08:45:06;3.17;;;2.58;;
67554;SDS011;54385;53.516;49.456;2023-08-08T08:47:43;2.42;;;2.10;;
67554;SDS011;54385;53.516;49.456;2023-08-08T08:50:15;2.35;;;2.15;;
67554;SDS011;54385;53.516;49.456;2023-08-08T08:52:42;3.08;;;2.20;;
67554;SDS011;54385;53.516;49.456;2023-08-08T08:55:08;3.28;;;2.17;;
67554;SDS011;54385;53.516;49.456;2023-08-08T08:57:36;3.25;;;2.17;;
67554;SDS011;54385;53.516;49.456;2023-08-08T09:00:03;3.10;;;1.88;;
67554;SDS011;54385;53.516;49.456;2023-08-08T09:02:32;2.88;;;2.05;;
67554;SDS011;54385;53.516;49.456;2023-08-08T09:05:01;5.38;;;2.22;;
67554;SDS011;54385;53.516;49.456;2023-08-08T09:07:32;3.40;;;2.10;;
67554;SDS011;54385;53.516;49.456;2023-08-08T09:09:59;3.30;;;2.05;;
67554;SDS011;54385;53.516;49.456;2023-08-08T09:12:26;3.17;;;1.92;;
67554;SDS011;54385;53.516;49.456;2023-08-08T09:14:57;4.22;;;1.80;;
67554;SDS011;54385;53.516;49.456;2023-08-08T09:17:27;2.55;;;1.80;;
67554;SDS011;54385;53.516;49.456;2023-08-08T09:19:54;3.35;;;2.05;;
67554;SDS011;54385;53.516;49.456;2023-08-08T09:22:21;3.22;;;2.22;;
67554;SDS011;54385;53.516;49.456;2023-08-08T09:24:49;4.85;;;2.03;;
67554;SDS011;54385;53.516;49.456;2023-08-08T09:27:16;3.90;;;2.08;;
67554;SDS011;54385;53.516;49.456;2023-08-08T09:29:42;3.10;;;2.00;;
67554;SDS011;54385;53.516;49.456;2023-08-08T09:32:09;3.47;;;2.10;;
67554;SDS011;54385;53.516;49.456;2023-08-08T09:34:36;5.35;;;2.15;;
67554;SDS011;54385;53.516;49.456;2023-08-08T09:37:03;3.00;;;1.83;;
67554;SDS011;54385;53.516;49.456;2023-08-08T09:39:32;3.33;;;1.70;;
67554;SDS011;54385;53.516;49.456;2023-08-08T09:42:01;3.88;;;1.80;;
67554;SDS011;54385;53.516;49.456;2023-08-08T09:44:30;4.03;;;2.28;;
67554;SDS011;54385;53.516;49.456;2023-08-08T09:47:01;2.08;;;1.70;;
67554;SDS011;54385;53.516;49.456;2023-08-08T09:49:29;4.18;;;2.15;;
67554;SDS011;54385;53.516;49.456;2023-08-08T09:52:00;2.47;;;1.90;;
67554;SDS011;54385;53.516;49.456;2023-08-08T09:54:28;4.15;;;1.98;;
67554;SDS011;54385;53.516;49.456;2023-08-08T09:56:55;3.85;;;1.90;;
67554;SDS011;54385;53.516;49.456;2023-08-08T09:59:23;2.60;;;1.67;;
67554;SDS011;54385;53.516;49.456;2023-08-08T10:01:50;4.00;;;1.88;;
67554;SDS011;54385;53.516;49.456;2023-08-08T10:04:18;3.13;;;1.83;;
67554;SDS011;54385;53.516;49.456;2023-08-08T10:06:45;2.10;;;1.73;;
67554;SDS011;54385;53.516;49.456;2023-08-08T10:09:12;2.58;;;1.70;;
67554;SDS011;54385;53.516;49.456;2023-08-08T10:11:39;2.58;;;1.73;;
67554;SDS011;54385;53.516;49.456;2023-08-08T10:14:08;2.83;;;1.77;;
67554;SDS011;54385;53.516;49.456;2023-08-08T10:16:37;2.08;;;1.77;;
67554;SDS011;54385;53.516;49.456;2023-08-08T10:19:05;2.97;;;1.63;;
67554;SDS011;54385;53.516;49.456;2023-08-08T10:21:40;2.65;;;1.75;;
67554;SDS011;54385;53.516;49.456;2023-08-08T10:24:11;2.63;;;1.90;;
67554;SDS011;54385;53.516;49.456;2023-08-08T10:26:59;2.38;;;1.75;;
67554;SDS011;54385;53.516;49.456;2023-08-08T10:29:28;2.00;;;1.67;;
67554;SDS011;54385;53.516;49.456;2023-08-08T10:32:01;3.05;;;1.88;;
67554;SDS011;54385;53.516;49.456;2023-08-08T10:34:39;2.30;;;1.90;;
67554;SDS011;54385;53.516;49.456;2023-08-08T10:37:11;1.60;;;1.40;;
67554;SDS011;54385;53.516;49.456;2023-08-08T10:39:53;1.92;;;1.58;;
67554;SDS011;54385;53.516;49.456;2023-08-08T10:42:24;3.30;;;1.40;;
67554;SDS011;54385;53.516;49.456;2023-08-08T10:44:53;2.38;;;1.52;;
67554;SDS011;54385;53.516;49.456;2023-08-08T10:47:25;2.08;;;1.83;;
67554;SDS011;54385;53.516;49.456;2023-08-08T10:49:59;2.20;;;1.85;;
67554;SDS011;54385;53.516;49.456;2023-08-08T10:52:31;2.85;;;1.88;;
67554;SDS011;54385;53.516;49.456;2023-08-08T10:55:01;1.73;;;1.58;;
67554;SDS011;54385;53.516;49.456;2023-08-08T10:57:30;3.08;;;1.50;;
67554;SDS011;54385;53.516;49.456;2023-08-08T11:00:15;2.28;;;1.60;;
67554;SDS011;54385;53.516;49.456;2023-08-08T11:02:44;2.60;;;1.80;;
67554;SDS011;54385;53.516;49.456;2023-08-08T11:05:11;2.67;;;1.63;;
67554;SDS011;54385;53.516;49.456;2023-08-08T11:07:38;2.50;;;1.40;;
67554;SDS011;54385;53.516;49.456;2023-08-08T11:10:06;3.40;;;1.42;;
67554;SDS011;54385;53.516;49.456;2023-08-08T11:12:33;1.35;;;1.25;;
67554;SDS011;54385;53.516;49.456;2023-08-08T11:14:59;3.90;;;1.60;;
67554;SDS011;54385;53.516;49.456;2023-08-08T11:17:27;1.77;;;1.52;;
67554;SDS011;54385;53.516;49.456;2023-08-08T11:19:54;3.08;;;1.67;;
67554;SDS011;54385;53.516;49.456;2023-08-08T11:22:21;2.15;;;1.67;;
67554;SDS011;54385;53.516;49.456;2023-08-08T11:24:52;2.33;;;1.50;;
67554;SDS011;54385;53.516;49.456;2023-08-08T11:27:18;2.28;;;1.50;;
67554;SDS011;54385;53.516;49.456;2023-08-08T11:29:49;2.20;;;1.30;;
67554;SDS011;54385;53.516;49.456;2023-08-08T11:32:22;1.30;;;1.17;;
67554;SDS011;54385;53.516;49.456;2023-08-08T11:34:48;2.47;;;1.60;;
67554;SDS011;54385;53.516;49.456;2023-08-08T11:37:15;1.83;;;1.27;;
67554;SDS011;54385;53.516;49.456;2023-08-08T11:39:43;2.42;;;1.40;;
67554;SDS011;54385;53.516;49.456;2023-08-08T11:42:11;1.65;;;1.20;;
67554;SDS011;54385;53.516;49.456;2023-08-08T11:44:38;1.88;;;1.27;;
67554;SDS011;54385;53.516;49.456;2023-08-08T11:47:05;2.03;;;1.45;;
67554;SDS011;54385;53.516;49.456;2023-08-08T11:49:42;1.88;;;1.48;;
67554;SDS011;54385;53.516;49.456;2023-08-08T11:52:09;2.78;;;1.27;;
67554;SDS011;54385;53.516;49.456;2023-08-08T11:54:39;2.25;;;1.50;;
67554;SDS011;54385;53.516;49.456;2023-08-08T11:57:07;2.03;;;1.40;;
67554;SDS011;54385;53.516;49.456;2023-08-08T11:59:35;1.48;;;1.30;;
67554;SDS011;54385;53.516;49.456;2023-08-08T12:02:05;1.83;;;1.30;;
67554;SDS011;54385;53.516;49.456;2023-08-08T12:04:33;1.67;;;1.23;;
67554;SDS011;54385;53.516;49.456;2023-08-08T12:07:01;2.00;;;1.40;;
67554;SDS011;54385;53.516;49.456;2023-08-08T12:09:32;1.55;;;1.23;;
67554;SDS011;54385;53.516;49.456;2023-08-08T12:12:03;1.80;;;1.40;;
67554;SDS011;54385;53.516;49.456;2023-08-08T12:14:42;1.45;;;1.35;;
67554;SDS011;54385;53.516;49.456;2023-08-08T12:17:10;1.45;;;1.35;;
67554;SDS011;54385;53.516;49.456;2023-08-08T12:19:44;1.67;;;1.23;;
67554;SDS011;54385;53.516;49.456;2023-08-08T12:22:12;1.45;;;1.13;;
67554;SDS011;54385;53.516;49.456;2023-08-08T12:24:40;2.28;;;1.23;;
67554;SDS011;54385;53.516;49.456;2023-08-08T12:27:07;1.83;;;1.42;;
67554;SDS011;54385;53.516;49.456;2023-08-08T12:29:34;1.55;;;1.20;;
67554;SDS011;54385;53.516;49.456;2023-08-08T12:32:01;1.55;;;1.20;;
67554;SDS011;54385;53.516;49.456;2023-08-08T12:34:34;1.30;;;1.20;;
67554;SDS011;54385;53.516;49.456;2023-08-08T12:37:02;1.55;;;1.20;;
67554;SDS011;54385;53.516;49.456;2023-08-08T12:39:29;1.83;;;1.08;;
67554;SDS011;54385;53.516;49.456;2023-08-08T12:41:56;1.23;;;1.13;;
67554;SDS011;54385;53.516;49.456;2023-08-08T12:44:23;1.50;;;1.20;;
67554;SDS011;54385;53.516;49.456;2023-08-08T12:46:57;1.08;;;0.98;;
67554;SDS011;54385;53.516;49.456;2023-08-08T12:49:24;1.02;;;0.90;;
67554;SDS011;54385;53.516;49.456;2023-08-08T12:51:51;1.30;;;1.20;;
67554;SDS011;54385;53.516;49.456;2023-08-08T12:54:21;2.08;;;1.20;;
67554;SDS011;54385;53.516;49.456;2023-08-08T12:56:48;1.50;;;1.13;;
67554;SDS011;54385;53.516;49.456;2023-08-08T12:59:18;1.88;;;1.40;;
67554;SDS011;54385;53.516;49.456;2023-08-08T13:01:46;1.70;;;1.17;;
67554;SDS011;54385;53.516;49.456;2023-08-08T13:04:13;2.25;;;1.20;;
67554;SDS011;54385;53.516;49.456;2023-08-08T13:06:41;1.20;;;1.10;;
67554;SDS011;54385;53.516;49.456;2023-08-08T13:09:08;2.22;;;1.40;;
67554;SDS011;54385;53.516;49.456;2023-08-08T13:11:35;2.17;;;1.30;;
67554;SDS011;54385;53.516;49.456;2023-08-08T13:14:02;1.48;;;1.00;;
67554;SDS011;54385;53.516;49.456;2023-08-08T13:16:29;1.58;;;1.17;;
67554;SDS011;54385;53.516;49.456;2023-08-08T13:18:56;1.52;;;1.23;;
67554;SDS011;54385;53.516;49.456;2023-08-08T13:21:23;1.35;;;1.10;;
67554;SDS011;54385;53.516;49.456;2023-08-08T13:23:51;1.40;;;1.23;;
67554;SDS011;54385;53.516;49.456;2023-08-08T13:26:18;2.80;;;1.20;;
67554;SDS011;54385;53.516;49.456;2023-08-08T13:28:45;1.73;;;0.90;;
67554;SDS011;54385;53.516;49.456;2023-08-08T13:31:12;1.17;;;1.05;;
67554;SDS011;54385;53.516;49.456;2023-08-08T13:33:39;1.25;;;0.98;;
67554;SDS011;54385;53.516;49.456;2023-08-08T13:36:07;1.27;;;1.00;;
67554;SDS011;54385;53.516;49.456;2023-08-08T13:38:35;1.30;;;1.20;;
67554;SDS011;54385;53.516;49.456;2023-08-08T13:41:02;1.33;;;0.90;;
67554;SDS011;54385;53.516;49.456;2023-08-08T13:43:29;1.20;;;1.10;;
67554;SDS011;54385;53.516;49.456;2023-08-08T13:45:56;0.93;;;0.80;;
67554;SDS011;54385;53.516;49.456;2023-08-08T13:48:23;1.67;;;1.10;;
67554;SDS011;54385;53.516;49.456;2023-08-08T13:50:52;1.67;;;1.00;;
67554;SDS011;54385;53.516;49.456;2023-08-08T13:53:19;0.93;;;0.82;;
67554;SDS011;54385;53.516;49.456;2023-08-08T13:55:45;0.90;;;0.90;;
67554;SDS011;54385;53.516;49.456;2023-08-08T13:58:12;1.20;;;1.10;;
67554;SDS011;54385;53.516;49.456;2023-08-08T14:00:38;1.38;;;1.10;;
67554;SDS011;54385;53.516;49.456;2023-08-08T14:03:05;1.23;;;0.98;;
67554;SDS011;54385;53.516;49.456;2023-08-08T14:05:31;1.23;;;1.00;;
67554;SDS011;54385;53.516;49.456;2023-08-08T14:07:58;1.23;;;0.90;;
67554;SDS011;54385;53.516;49.456;2023-08-08T14:10:24;1.55;;;1.02;;
67554;SDS011;54385;53.516;49.456;2023-08-08T14:12:51;1.02;;;0.90;;
67554;SDS011;54385;53.516;49.456;2023-08-08T14:15:17;1.23;;;1.00;;
67554;SDS011;54385;53.516;49.456;2023-08-08T14:17:44;1.50;;;1.00;;
67554;SDS011;54385;53.516;49.456;2023-08-08T14:20:11;1.50;;;1.23;;
67554;SDS011;54385;53.516;49.456;2023-08-08T14:22:37;1.92;;;1.10;;
67554;SDS011;54385;53.516;49.456;2023-08-08T14:25:04;1.02;;;0.85;;
67554;SDS011;54385;53.516;49.456;2023-08-08T14:27:31;1.50;;;1.00;;
67554;SDS011;54385;53.516;49.456;2023-08-08T14:29:58;1.58;;;1.30;;
67554;SDS011;54385;53.516;49.456;2023-08-08T14:32:24;0.98;;;0.93;;
67554;SDS011;54385;53.516;49.456;2023-08-08T14:34:51;1.75;;;1.30;;
67554;SDS011;54385;53.516;49.456;2023-08-08T14:37:18;1.70;;;1.20;;
67554;SDS011;54385;53.516;49.456;2023-08-08T14:39:44;1.13;;;1.02;;